Turkestan, Kazakhstan
Current Conditions -  °F | °C
As of 10:00 PM on Thursday 30 Oct 2014 (Local Time) from UAII Reporting Station
Smoke Smoke  
Wind Chill: 37°   Ceiling: Unl
Heat Index: 37°   Visibility: 2.5mi
Dew Point: 30°   Wind: 0mph
Humidity: 75%   Direction: NA
Pressure: 30.45"   Gusts: NA
Location:  43.29°N, 68.26°E
Report Text: UAII 301600Z 00000MPS 4000 BR FU NSC 03/M01 Q1031 R10/0///70NOSIG RMK QFE737/0983
Loading
Personal Weather Stations






























Interactive Weather Map
Tropical Storm Tracking
New forecast layout! Learn more

10-Day Weather Forecast

Advertisements
Track Severe Weather on mobile